Chicago, IL (60611)

7:20 AM CDT on August 04, 2015 (GMT -0500)
Old Town - Catherine Cook School | | Change Station
CLOSE
Current Station
Personal Weather Station
Location: Chicago, IL
Elevation: 594 ft
Nearby Weather Stations

Elev 594 ft 41.91 °N, 87.64 °W | Updated 9 seconds ago

Clear
Clear
69.6 °F
Feels Like 69.6 °F
N
0.9
Wind Variable Wind from SW
Gusts 3.0 mph

Today
High -- | Low -- °F
--% Chance of Precip.
Yesterday
High -- | Low -- °F
Precip. -- in
5:47 AM 8:05 PM
Waning Gibbous, 78% visible
Pressure 29.93 in
Visibility 10.0 miles
Clouds Few 7000 ft
Few 25000 ft
Dew Point 56 °F
Humidity 62%
Rainfall 0.00 in
Snow Depth Not available.
UV 0 out of 12
Pollen 7.70 out of 12
Air Quality Not available.
Flu Activity Not available.
METAR KMDW 041153Z 24003KT 10SM FEW070 FEW250 19/14 A2995 RMK AO2 SLP135 T01890139 10217 20178 53012

More Conditions Fewer Conditions

Pressure 29.93 in
Visibility 10.0 miles
Clouds Few 7000 ft
Few 25000 ft
Dew Point 56 °F
Humidity 62%
Rainfall 0.00 in
Snow Depth Not available.
UV 0 out of 12
Pollen 7.70 out of 12
Air Quality Not available.
Flu Activity Not available.
METAR KMDW 041153Z 24003KT 10SM FEW070 FEW250 19/14 A2995 RMK AO2 SLP135 T01890139 10217 20178 53012

More Conditions Fewer Conditions

10-Day Weather Forecast

×

Almanac

Astronomy

Aug. 04, 2015 Rise Set
Actual Time
Civil Twilight
Nautical Twilight
Astronomical Twilight
Moon
Length of Visible Light
Length of Day
Tomorrow will be .
, % of the Moon is Illuminated

Today's Extremes

State Highs State Lows

Community

WunderPhotos

Upload Photos

1,843,910 photos uploaded!

WunderBlogs® & News

Nearby

Air Quality

  Air Quality AQ Index Pollutant
Not available.

Snow Depth

Station Depth Elevation

Earthquake Activity

City Distance Mag. Time & Date
Minimum magnitude displayed is 2.5.

Coastal Water Temperatures

Place Temperature

Stations

Nearby Weather Stations

Station Location Temp. Windchill Dew Point Humidity Wind Precip. Elev Updated Type